sensor_id;sensor_type;location;lat;lon;timestamp;P1;durP1;ratioP1;P2;durP2;ratioP2
21162;SDS011;10739;52.198;20.908;2022-08-25T00:01:25;14.07;;;5.20;;
21162;SDS011;10739;52.198;20.908;2022-08-25T00:03:56;14.93;;;4.25;;
21162;SDS011;10739;52.198;20.908;2022-08-25T00:06:25;10.52;;;3.92;;
21162;SDS011;10739;52.198;20.908;2022-08-25T00:08:51;15.02;;;4.15;;
21162;SDS011;10739;52.198;20.908;2022-08-25T00:11:19;14.18;;;4.13;;
21162;SDS011;10739;52.198;20.908;2022-08-25T00:13:50;16.50;;;4.78;;
21162;SDS011;10739;52.198;20.908;2022-08-25T00:16:21;13.55;;;4.00;;
21162;SDS011;10739;52.198;20.908;2022-08-25T00:18:50;16.42;;;4.32;;
21162;SDS011;10739;52.198;20.908;2022-08-25T00:21:19;13.98;;;4.20;;
21162;SDS011;10739;52.198;20.908;2022-08-25T00:23:47;13.45;;;4.50;;
21162;SDS011;10739;52.198;20.908;2022-08-25T00:26:14;15.73;;;4.15;;
21162;SDS011;10739;52.198;20.908;2022-08-25T00:28:42;14.55;;;4.50;;
21162;SDS011;10739;52.198;20.908;2022-08-25T00:31:13;19.83;;;4.72;;
21162;SDS011;10739;52.198;20.908;2022-08-25T00:36:10;12.45;;;4.15;;
21162;SDS011;10739;52.198;20.908;2022-08-25T00:38:40;10.20;;;3.90;;
21162;SDS011;10739;52.198;20.908;2022-08-25T00:41:10;16.52;;;4.30;;
21162;SDS011;10739;52.198;20.908;2022-08-25T00:46:15;11.27;;;4.30;;
21162;SDS011;10739;52.198;20.908;2022-08-25T00:48:45;15.07;;;4.47;;
21162;SDS011;10739;52.198;20.908;2022-08-25T00:51:19;13.80;;;4.60;;
21162;SDS011;10739;52.198;20.908;2022-08-25T00:53:57;16.30;;;4.70;;
21162;SDS011;10739;52.198;20.908;2022-08-25T00:56:24;22.05;;;5.03;;
21162;SDS011;10739;52.198;20.908;2022-08-25T00:58:53;17.10;;;4.82;;
21162;SDS011;10739;52.198;20.908;2022-08-25T01:01:20;18.60;;;4.60;;
21162;SDS011;10739;52.198;20.908;2022-08-25T01:03:46;13.32;;;4.53;;
21162;SDS011;10739;52.198;20.908;2022-08-25T01:06:12;26.20;;;5.10;;
21162;SDS011;10739;52.198;20.908;2022-08-25T01:08:39;17.10;;;4.97;;
21162;SDS011;10739;52.198;20.908;2022-08-25T01:11:06;19.58;;;5.00;;
21162;SDS011;10739;52.198;20.908;2022-08-25T01:13:43;12.00;;;4.10;;
21162;SDS011;10739;52.198;20.908;2022-08-25T01:16:16;19.80;;;4.43;;
21162;SDS011;10739;52.198;20.908;2022-08-25T01:21:21;20.85;;;5.85;;
21162;SDS011;10739;52.198;20.908;2022-08-25T01:23:51;16.15;;;5.28;;
21162;SDS011;10739;52.198;20.908;2022-08-25T01:26:23;19.33;;;4.40;;
21162;SDS011;10739;52.198;20.908;2022-08-25T01:28:54;20.23;;;6.65;;
21162;SDS011;10739;52.198;20.908;2022-08-25T01:31:40;22.80;;;5.63;;
21162;SDS011;10739;52.198;20.908;2022-08-25T01:34:06;15.10;;;4.65;;
21162;SDS011;10739;52.198;20.908;2022-08-25T01:36:36;20.50;;;5.13;;
21162;SDS011;10739;52.198;20.908;2022-08-25T01:39:05;17.42;;;5.30;;
21162;SDS011;10739;52.198;20.908;2022-08-25T01:44:13;15.85;;;5.30;;
21162;SDS011;10739;52.198;20.908;2022-08-25T01:46:41;16.17;;;5.30;;
21162;SDS011;10739;52.198;20.908;2022-08-25T01:49:08;18.73;;;5.53;;
21162;SDS011;10739;52.198;20.908;2022-08-25T01:51:40;20.52;;;5.75;;
21162;SDS011;10739;52.198;20.908;2022-08-25T01:54:13;19.98;;;5.30;;
21162;SDS011;10739;52.198;20.908;2022-08-25T01:56:39;22.10;;;5.95;;
21162;SDS011;10739;52.198;20.908;2022-08-25T01:59:06;19.77;;;6.22;;
21162;SDS011;10739;52.198;20.908;2022-08-25T02:01:32;19.88;;;6.03;;
21162;SDS011;10739;52.198;20.908;2022-08-25T02:03:58;17.90;;;6.13;;
21162;SDS011;10739;52.198;20.908;2022-08-25T02:06:26;15.52;;;5.80;;
21162;SDS011;10739;52.198;20.908;2022-08-25T02:09:06;14.98;;;5.75;;
21162;SDS011;10739;52.198;20.908;2022-08-25T02:11:37;16.88;;;5.88;;
21162;SDS011;10739;52.198;20.908;2022-08-25T02:14:07;24.52;;;6.45;;
21162;SDS011;10739;52.198;20.908;2022-08-25T02:16:37;20.20;;;6.53;;
21162;SDS011;10739;52.198;20.908;2022-08-25T02:19:07;21.10;;;6.13;;
21162;SDS011;10739;52.198;20.908;2022-08-25T02:21:36;18.50;;;6.35;;
21162;SDS011;10739;52.198;20.908;2022-08-25T02:24:04;21.58;;;6.55;;
21162;SDS011;10739;52.198;20.908;2022-08-25T02:26:32;19.17;;;6.10;;
21162;SDS011;10739;52.198;20.908;2022-08-25T02:29:00;28.80;;;6.32;;
21162;SDS011;10739;52.198;20.908;2022-08-25T02:31:26;23.08;;;6.50;;
21162;SDS011;10739;52.198;20.908;2022-08-25T02:33:54;19.83;;;5.80;;
21162;SDS011;10739;52.198;20.908;2022-08-25T02:36:21;24.55;;;6.25;;
21162;SDS011;10739;52.198;20.908;2022-08-25T02:38:48;20.85;;;5.93;;
21162;SDS011;10739;52.198;20.908;2022-08-25T02:41:16;20.67;;;6.60;;
21162;SDS011;10739;52.198;20.908;2022-08-25T02:43:48;23.70;;;6.10;;
21162;SDS011;10739;52.198;20.908;2022-08-25T02:46:15;23.75;;;6.30;;
21162;SDS011;10739;52.198;20.908;2022-08-25T02:48:45;21.02;;;6.05;;
21162;SDS011;10739;52.198;20.908;2022-08-25T02:51:12;15.63;;;6.10;;
21162;SDS011;10739;52.198;20.908;2022-08-25T02:53:40;32.78;;;6.40;;
21162;SDS011;10739;52.198;20.908;2022-08-25T02:56:10;16.60;;;5.93;;
21162;SDS011;10739;52.198;20.908;2022-08-25T02:58:38;21.48;;;6.35;;
21162;SDS011;10739;52.198;20.908;2022-08-25T03:01:07;18.98;;;6.30;;
21162;SDS011;10739;52.198;20.908;2022-08-25T03:03:38;14.27;;;6.18;;
21162;SDS011;10739;52.198;20.908;2022-08-25T03:06:07;22.00;;;6.40;;
21162;SDS011;10739;52.198;20.908;2022-08-25T03:08:35;18.73;;;5.65;;
21162;SDS011;10739;52.198;20.908;2022-08-25T03:11:03;20.60;;;6.45;;
21162;SDS011;10739;52.198;20.908;2022-08-25T03:13:30;22.05;;;6.55;;
21162;SDS011;10739;52.198;20.908;2022-08-25T03:16:01;20.88;;;5.90;;
21162;SDS011;10739;52.198;20.908;2022-08-25T03:18:30;20.80;;;6.32;;
21162;SDS011;10739;52.198;20.908;2022-08-25T03:20:57;21.95;;;6.70;;
21162;SDS011;10739;52.198;20.908;2022-08-25T03:23:24;22.38;;;6.63;;
21162;SDS011;10739;52.198;20.908;2022-08-25T03:25:52;23.23;;;5.95;;
21162;SDS011;10739;52.198;20.908;2022-08-25T03:28:39;22.52;;;6.55;;
21162;SDS011;10739;52.198;20.908;2022-08-25T03:31:06;27.77;;;6.80;;
21162;SDS011;10739;52.198;20.908;2022-08-25T03:33:34;23.25;;;6.45;;
21162;SDS011;10739;52.198;20.908;2022-08-25T03:36:01;21.40;;;6.55;;
21162;SDS011;10739;52.198;20.908;2022-08-25T03:38:28;32.13;;;7.32;;
21162;SDS011;10739;52.198;20.908;2022-08-25T03:40:54;24.92;;;7.78;;
21162;SDS011;10739;52.198;20.908;2022-08-25T03:43:21;25.05;;;6.72;;
21162;SDS011;10739;52.198;20.908;2022-08-25T03:45:47;25.38;;;7.25;;
21162;SDS011;10739;52.198;20.908;2022-08-25T03:48:13;20.50;;;6.05;;
21162;SDS011;10739;52.198;20.908;2022-08-25T03:50:48;22.90;;;6.63;;
21162;SDS011;10739;52.198;20.908;2022-08-25T03:53:16;30.25;;;7.47;;
21162;SDS011;10739;52.198;20.908;2022-08-25T03:55:44;27.83;;;6.85;;
21162;SDS011;10739;52.198;20.908;2022-08-25T03:58:10;24.85;;;6.65;;
21162;SDS011;10739;52.198;20.908;2022-08-25T04:00:36;26.08;;;7.30;;
21162;SDS011;10739;52.198;20.908;2022-08-25T04:03:03;28.05;;;7.03;;
21162;SDS011;10739;52.198;20.908;2022-08-25T04:05:30;34.60;;;7.95;;
21162;SDS011;10739;52.198;20.908;2022-08-25T04:07:56;27.45;;;7.93;;
21162;SDS011;10739;52.198;20.908;2022-08-25T04:10:22;34.03;;;7.72;;
21162;SDS011;10739;52.198;20.908;2022-08-25T04:12:48;26.15;;;6.93;;
21162;SDS011;10739;52.198;20.908;2022-08-25T04:15:14;29.65;;;7.38;;
21162;SDS011;10739;52.198;20.908;2022-08-25T04:17:40;35.90;;;7.30;;
21162;SDS011;10739;52.198;20.908;2022-08-25T04:20:08;35.10;;;8.32;;
21162;SDS011;10739;52.198;20.908;2022-08-25T04:22:37;30.20;;;7.60;;
21162;SDS011;10739;52.198;20.908;2022-08-25T04:25:07;32.03;;;8.02;;
21162;SDS011;10739;52.198;20.908;2022-08-25T04:27:34;34.13;;;7.18;;
21162;SDS011;10739;52.198;20.908;2022-08-25T04:30:02;30.70;;;7.32;;
21162;SDS011;10739;52.198;20.908;2022-08-25T04:32:30;38.75;;;8.05;;
21162;SDS011;10739;52.198;20.908;2022-08-25T04:34:57;34.30;;;7.50;;
21162;SDS011;10739;52.198;20.908;2022-08-25T04:37:23;26.73;;;7.38;;
21162;SDS011;10739;52.198;20.908;2022-08-25T04:39:50;25.00;;;7.97;;
21162;SDS011;10739;52.198;20.908;2022-08-25T04:42:16;31.02;;;7.55;;
21162;SDS011;10739;52.198;20.908;2022-08-25T04:44:42;25.05;;;7.18;;
21162;SDS011;10739;52.198;20.908;2022-08-25T04:47:08;32.65;;;8.32;;
21162;SDS011;10739;52.198;20.908;2022-08-25T04:49:35;38.70;;;8.30;;
21162;SDS011;10739;52.198;20.908;2022-08-25T04:52:01;24.08;;;7.28;;
21162;SDS011;10739;52.198;20.908;2022-08-25T04:54:28;28.55;;;8.70;;
21162;SDS011;10739;52.198;20.908;2022-08-25T04:56:54;43.45;;;8.48;;
21162;SDS011;10739;52.198;20.908;2022-08-25T04:59:21;31.83;;;7.82;;
21162;SDS011;10739;52.198;20.908;2022-08-25T05:01:47;35.08;;;8.13;;
21162;SDS011;10739;52.198;20.908;2022-08-25T05:04:15;40.80;;;7.95;;
21162;SDS011;10739;52.198;20.908;2022-08-25T05:06:45;39.45;;;9.45;;
21162;SDS011;10739;52.198;20.908;2022-08-25T05:09:12;41.45;;;8.43;;
21162;SDS011;10739;52.198;20.908;2022-08-25T05:11:38;36.80;;;8.50;;
21162;SDS011;10739;52.198;20.908;2022-08-25T05:14:04;39.35;;;8.85;;
21162;SDS011;10739;52.198;20.908;2022-08-25T05:16:36;37.03;;;8.82;;
21162;SDS011;10739;52.198;20.908;2022-08-25T05:19:03;36.30;;;8.25;;
21162;SDS011;10739;52.198;20.908;2022-08-25T05:21:31;32.90;;;8.70;;
21162;SDS011;10739;52.198;20.908;2022-08-25T05:24:15;29.90;;;8.48;;
21162;SDS011;10739;52.198;20.908;2022-08-25T05:26:41;38.88;;;8.45;;
21162;SDS011;10739;52.198;20.908;2022-08-25T05:29:08;36.53;;;8.18;;
21162;SDS011;10739;52.198;20.908;2022-08-25T05:31:36;37.17;;;9.75;;
21162;SDS011;10739;52.198;20.908;2022-08-25T05:34:06;38.97;;;8.52;;
21162;SDS011;10739;52.198;20.908;2022-08-25T05:36:32;35.22;;;7.85;;
21162;SDS011;10739;52.198;20.908;2022-08-25T05:38:59;36.47;;;8.38;;
21162;SDS011;10739;52.198;20.908;2022-08-25T05:41:27;41.17;;;8.05;;
21162;SDS011;10739;52.198;20.908;2022-08-25T05:43:56;33.63;;;8.57;;
21162;SDS011;10739;52.198;20.908;2022-08-25T05:46:23;37.40;;;7.95;;
21162;SDS011;10739;52.198;20.908;2022-08-25T05:48:50;46.00;;;8.27;;
21162;SDS011;10739;52.198;20.908;2022-08-25T05:51:18;36.95;;;8.73;;
21162;SDS011;10739;52.198;20.908;2022-08-25T05:53:46;44.53;;;8.48;;
21162;SDS011;10739;52.198;20.908;2022-08-25T05:56:14;36.92;;;8.68;;
21162;SDS011;10739;52.198;20.908;2022-08-25T05:58:42;36.25;;;8.43;;
21162;SDS011;10739;52.198;20.908;2022-08-25T06:01:09;32.95;;;8.65;;
21162;SDS011;10739;52.198;20.908;2022-08-25T06:04:06;26.52;;;7.85;;
21162;SDS011;10739;52.198;20.908;2022-08-25T06:06:32;39.05;;;8.55;;
21162;SDS011;10739;52.198;20.908;2022-08-25T06:09:00;51.45;;;8.90;;
21162;SDS011;10739;52.198;20.908;2022-08-25T06:11:27;38.28;;;9.07;;
21162;SDS011;10739;52.198;20.908;2022-08-25T06:13:54;33.83;;;8.52;;
21162;SDS011;10739;52.198;20.908;2022-08-25T06:16:22;30.52;;;8.95;;
21162;SDS011;10739;52.198;20.908;2022-08-25T06:18:51;39.10;;;9.60;;
21162;SDS011;10739;52.198;20.908;2022-08-25T06:21:22;42.75;;;8.95;;
21162;SDS011;10739;52.198;20.908;2022-08-25T06:23:53;30.83;;;8.52;;
21162;SDS011;10739;52.198;20.908;2022-08-25T06:26:20;43.85;;;8.65;;
21162;SDS011;10739;52.198;20.908;2022-08-25T06:28:50;32.72;;;8.32;;
21162;SDS011;10739;52.198;20.908;2022-08-25T06:31:17;42.00;;;9.20;;
21162;SDS011;10739;52.198;20.908;2022-08-25T06:33:46;49.90;;;9.40;;
21162;SDS011;10739;52.198;20.908;2022-08-25T06:36:13;42.90;;;8.80;;
21162;SDS011;10739;52.198;20.908;2022-08-25T06:38:40;41.35;;;8.70;;
21162;SDS011;10739;52.198;20.908;2022-08-25T06:41:06;38.78;;;8.38;;
21162;SDS011;10739;52.198;20.908;2022-08-25T06:43:35;45.05;;;8.48;;
21162;SDS011;10739;52.198;20.908;2022-08-25T06:46:11;35.13;;;7.95;;
21162;SDS011;10739;52.198;20.908;2022-08-25T06:48:40;32.22;;;8.02;;
21162;SDS011;10739;52.198;20.908;2022-08-25T06:51:07;31.52;;;8.63;;
21162;SDS011;10739;52.198;20.908;2022-08-25T06:53:37;33.22;;;8.25;;
21162;SDS011;10739;52.198;20.908;2022-08-25T06:56:04;36.10;;;8.35;;
21162;SDS011;10739;52.198;20.908;2022-08-25T06:58:31;37.95;;;8.77;;
21162;SDS011;10739;52.198;20.908;2022-08-25T07:01:14;38.65;;;9.00;;
21162;SDS011;10739;52.198;20.908;2022-08-25T07:03:48;36.85;;;8.35;;
21162;SDS011;10739;52.198;20.908;2022-08-25T07:06:15;38.20;;;9.07;;
21162;SDS011;10739;52.198;20.908;2022-08-25T07:08:46;38.05;;;8.95;;
21162;SDS011;10739;52.198;20.908;2022-08-25T07:11:13;39.08;;;9.10;;
21162;SDS011;10739;52.198;20.908;2022-08-25T07:13:40;44.83;;;8.88;;
21162;SDS011;10739;52.198;20.908;2022-08-25T07:16:07;41.75;;;8.95;;
21162;SDS011;10739;52.198;20.908;2022-08-25T07:18:35;37.50;;;8.75;;
21162;SDS011;10739;52.198;20.908;2022-08-25T07:21:01;39.58;;;8.77;;
21162;SDS011;10739;52.198;20.908;2022-08-25T07:23:28;42.85;;;9.15;;
21162;SDS011;10739;52.198;20.908;2022-08-25T07:25:54;52.58;;;9.60;;
21162;SDS011;10739;52.198;20.908;2022-08-25T07:28:21;37.92;;;8.20;;
21162;SDS011;10739;52.198;20.908;2022-08-25T07:30:49;37.83;;;7.97;;
21162;SDS011;10739;52.198;20.908;2022-08-25T07:33:16;56.80;;;9.93;;
21162;SDS011;10739;52.198;20.908;2022-08-25T07:35:42;35.47;;;8.52;;
21162;SDS011;10739;52.198;20.908;2022-08-25T07:38:08;52.60;;;8.63;;
21162;SDS011;10739;52.198;20.908;2022-08-25T07:40:35;51.95;;;8.82;;
21162;SDS011;10739;52.198;20.908;2022-08-25T07:43:04;40.85;;;8.43;;
21162;SDS011;10739;52.198;20.908;2022-08-25T07:45:35;41.22;;;8.27;;
21162;SDS011;10739;52.198;20.908;2022-08-25T07:48:05;32.40;;;8.55;;
21162;SDS011;10739;52.198;20.908;2022-08-25T07:50:35;33.35;;;9.35;;
21162;SDS011;10739;52.198;20.908;2022-08-25T07:53:06;41.35;;;8.63;;
21162;SDS011;10739;52.198;20.908;2022-08-25T07:55:34;40.85;;;7.65;;
21162;SDS011;10739;52.198;20.908;2022-08-25T07:58:01;34.80;;;8.77;;
21162;SDS011;10739;52.198;20.908;2022-08-25T08:00:31;32.40;;;8.10;;
21162;SDS011;10739;52.198;20.908;2022-08-25T08:03:02;33.40;;;7.65;;
21162;SDS011;10739;52.198;20.908;2022-08-25T08:05:30;45.35;;;8.52;;
21162;SDS011;10739;52.198;20.908;2022-08-25T08:07:57;38.10;;;8.35;;
21162;SDS011;10739;52.198;20.908;2022-08-25T08:10:24;39.20;;;8.68;;
21162;SDS011;10739;52.198;20.908;2022-08-25T08:12:51;41.97;;;8.93;;
21162;SDS011;10739;52.198;20.908;2022-08-25T08:15:18;37.22;;;8.10;;
21162;SDS011;10739;52.198;20.908;2022-08-25T08:17:45;28.02;;;7.85;;
21162;SDS011;10739;52.198;20.908;2022-08-25T08:20:12;43.90;;;9.13;;
21162;SDS011;10739;52.198;20.908;2022-08-25T08:22:39;34.17;;;8.10;;
21162;SDS011;10739;52.198;20.908;2022-08-25T08:25:09;42.30;;;8.60;;
21162;SDS011;10739;52.198;20.908;2022-08-25T08:27:37;39.03;;;7.97;;
21162;SDS011;10739;52.198;20.908;2022-08-25T08:30:04;32.00;;;7.40;;
21162;SDS011;10739;52.198;20.908;2022-08-25T08:32:31;42.92;;;8.25;;
21162;SDS011;10739;52.198;20.908;2022-08-25T08:34:57;36.53;;;8.18;;
21162;SDS011;10739;52.198;20.908;2022-08-25T08:37:23;34.15;;;7.68;;
21162;SDS011;10739;52.198;20.908;2022-08-25T08:39:49;35.40;;;7.80;;
21162;SDS011;10739;52.198;20.908;2022-08-25T08:47:55;43.97;;;8.70;;
21162;SDS011;10739;52.198;20.908;2022-08-25T08:53:40;33.03;;;8.27;;
21162;SDS011;10739;52.198;20.908;2022-08-25T08:56:28;36.80;;;7.40;;
21162;SDS011;10739;52.198;20.908;2022-08-25T08:59:15;36.30;;;7.88;;
21162;SDS011;10739;52.198;20.908;2022-08-25T09:01:58;38.50;;;7.40;;
21162;SDS011;10739;52.198;20.908;2022-08-25T09:04:37;35.97;;;8.05;;
21162;SDS011;10739;52.198;20.908;2022-08-25T09:07:16;34.47;;;7.95;;
21162;SDS011;10739;52.198;20.908;2022-08-25T09:09:53;38.35;;;8.15;;
21162;SDS011;10739;52.198;20.908;2022-08-25T09:18:25;37.70;;;7.90;;
21162;SDS011;10739;52.198;20.908;2022-08-25T09:21:29;36.05;;;7.35;;
21162;SDS011;10739;52.198;20.908;2022-08-25T09:24:25;38.00;;;8.00;;
21162;SDS011;10739;52.198;20.908;2022-08-25T09:32:43;41.13;;;8.00;;
21162;SDS011;10739;52.198;20.908;2022-08-25T09:35:22;43.08;;;7.75;;
21162;SDS011;10739;52.198;20.908;2022-08-25T09:37:56;30.73;;;7.50;;
21162;SDS011;10739;52.198;20.908;2022-08-25T09:40:32;35.38;;;8.20;;
21162;SDS011;10739;52.198;20.908;2022-08-25T09:45:57;32.38;;;6.70;;
21162;SDS011;10739;52.198;20.908;2022-08-25T09:53:55;37.03;;;8.02;;
21162;SDS011;10739;52.198;20.908;2022-08-25T09:56:27;45.35;;;8.55;;
21162;SDS011;10739;52.198;20.908;2022-08-25T10:01:47;43.28;;;8.10;;
21162;SDS011;10739;52.198;20.908;2022-08-25T10:04:26;33.63;;;8.10;;
21162;SDS011;10739;52.198;20.908;2022-08-25T10:07:03;31.92;;;7.18;;
21162;SDS011;10739;52.198;20.908;2022-08-25T10:09:56;32.08;;;5.00;;
21162;SDS011;10739;52.198;20.908;2022-08-25T10:12:39;25.42;;;5.35;;
21162;SDS011;10739;52.198;20.908;2022-08-25T10:15:20;21.58;;;4.82;;
21162;SDS011;10739;52.198;20.908;2022-08-25T10:18:20;22.38;;;5.03;;
21162;SDS011;10739;52.198;20.908;2022-08-25T10:21:03;14.15;;;4.65;;
21162;SDS011;10739;52.198;20.908;2022-08-25T10:23:40;17.80;;;4.97;;
21162;SDS011;10739;52.198;20.908;2022-08-25T10:26:35;22.63;;;5.10;;
21162;SDS011;10739;52.198;20.908;2022-08-25T10:34:55;25.27;;;4.78;;
21162;SDS011;10739;52.198;20.908;2022-08-25T10:37:47;21.58;;;4.63;;
21162;SDS011;10739;52.198;20.908;2022-08-25T10:46:40;22.20;;;3.63;;
21162;SDS011;10739;52.198;20.908;2022-08-25T10:49:31;14.35;;;3.83;;
21162;SDS011;10739;52.198;20.908;2022-08-25T10:57:33;11.23;;;3.55;;
21162;SDS011;10739;52.198;20.908;2022-08-25T11:00:31;11.43;;;3.60;;
21162;SDS011;10739;52.198;20.908;2022-08-25T11:06:19;15.85;;;3.75;;
21162;SDS011;10739;52.198;20.908;2022-08-25T11:09:04;15.80;;;3.25;;
21162;SDS011;10739;52.198;20.908;2022-08-25T11:11:54;8.07;;;2.85;;
21162;SDS011;10739;52.198;20.908;2022-08-25T11:14:38;8.30;;;3.08;;
21162;SDS011;10739;52.198;20.908;2022-08-25T11:17:19;12.90;;;3.05;;
21162;SDS011;10739;52.198;20.908;2022-08-25T11:20:15;9.48;;;2.92;;
21162;SDS011;10739;52.198;20.908;2022-08-25T11:22:56;25.55;;;3.40;;
21162;SDS011;10739;52.198;20.908;2022-08-25T11:26:14;10.73;;;3.05;;
21162;SDS011;10739;52.198;20.908;2022-08-25T11:29:12;12.05;;;2.67;;
21162;SDS011;10739;52.198;20.908;2022-08-25T11:31:48;14.80;;;2.90;;
21162;SDS011;10739;52.198;20.908;2022-08-25T11:34:17;14.90;;;3.60;;
21162;SDS011;10739;52.198;20.908;2022-08-25T11:36:49;11.50;;;3.40;;
21162;SDS011;10739;52.198;20.908;2022-08-25T11:51:11;17.30;;;3.42;;
21162;SDS011;10739;52.198;20.908;2022-08-25T12:11:10;12.43;;;3.15;;
21162;SDS011;10739;52.198;20.908;2022-08-25T12:30:49;8.05;;;2.70;;
21162;SDS011;10739;52.198;20.908;2022-08-25T12:36:30;13.88;;;2.75;;
21162;SDS011;10739;52.198;20.908;2022-08-25T12:39:07;12.70;;;3.20;;
21162;SDS011;10739;52.198;20.908;2022-08-25T12:41:53;14.50;;;3.55;;
21162;SDS011;10739;52.198;20.908;2022-08-25T12:53:11;11.77;;;3.03;;
21162;SDS011;10739;52.198;20.908;2022-08-25T12:55:48;4.47;;;2.67;;
21162;SDS011;10739;52.198;20.908;2022-08-25T12:58:24;11.52;;;3.08;;
21162;SDS011;10739;52.198;20.908;2022-08-25T13:01:12;15.30;;;3.30;;
21162;SDS011;10739;52.198;20.908;2022-08-25T13:06:53;15.27;;;3.28;;
21162;SDS011;10739;52.198;20.908;2022-08-25T13:09:43;7.68;;;3.28;;
21162;SDS011;10739;52.198;20.908;2022-08-25T13:12:45;7.85;;;3.55;;
21162;SDS011;10739;52.198;20.908;2022-08-25T13:15:38;11.48;;;3.40;;
21162;SDS011;10739;52.198;20.908;2022-08-25T13:18:17;7.90;;;3.30;;
21162;SDS011;10739;52.198;20.908;2022-08-25T13:20:46;11.70;;;3.45;;
21162;SDS011;10739;52.198;20.908;2022-08-25T13:23:29;12.77;;;3.33;;
21162;SDS011;10739;52.198;20.908;2022-08-25T13:26:00;10.57;;;3.40;;
21162;SDS011;10739;52.198;20.908;2022-08-25T13:28:49;8.90;;;3.50;;
21162;SDS011;10739;52.198;20.908;2022-08-25T13:31:23;10.98;;;3.75;;
21162;SDS011;10739;52.198;20.908;2022-08-25T13:33:55;10.13;;;3.30;;
21162;SDS011;10739;52.198;20.908;2022-08-25T13:36:35;10.40;;;3.60;;
21162;SDS011;10739;52.198;20.908;2022-08-25T13:39:29;15.30;;;3.15;;
21162;SDS011;10739;52.198;20.908;2022-08-25T13:41:58;10.75;;;3.30;;
21162;SDS011;10739;52.198;20.908;2022-08-25T13:44:27;15.77;;;3.35;;
21162;SDS011;10739;52.198;20.908;2022-08-25T13:50:06;14.73;;;3.33;;
21162;SDS011;10739;52.198;20.908;2022-08-25T13:53:19;10.52;;;3.25;;
21162;SDS011;10739;52.198;20.908;2022-08-25T13:58:26;10.10;;;2.78;;
21162;SDS011;10739;52.198;20.908;2022-08-25T14:01:02;13.07;;;2.95;;
21162;SDS011;10739;52.198;20.908;2022-08-25T14:03:48;9.00;;;2.95;;
21162;SDS011;10739;52.198;20.908;2022-08-25T14:08:57;10.10;;;3.15;;
21162;SDS011;10739;52.198;20.908;2022-08-25T14:11:43;8.88;;;2.80;;
21162;SDS011;10739;52.198;20.908;2022-08-25T14:16:48;14.35;;;3.00;;
21162;SDS011;10739;52.198;20.908;2022-08-25T14:19:20;9.43;;;3.17;;
21162;SDS011;10739;52.198;20.908;2022-08-25T14:21:48;9.35;;;3.17;;
21162;SDS011;10739;52.198;20.908;2022-08-25T14:24:19;7.75;;;3.30;;
21162;SDS011;10739;52.198;20.908;2022-08-25T14:26:48;8.15;;;3.20;;
21162;SDS011;10739;52.198;20.908;2022-08-25T14:29:14;10.43;;;3.10;;
21162;SDS011;10739;52.198;20.908;2022-08-25T14:31:43;12.05;;;3.38;;
21162;SDS011;10739;52.198;20.908;2022-08-25T14:36:40;9.48;;;3.15;;
21162;SDS011;10739;52.198;20.908;2022-08-25T14:39:07;11.02;;;3.33;;
21162;SDS011;10739;52.198;20.908;2022-08-25T14:41:36;10.38;;;2.85;;
21162;SDS011;10739;52.198;20.908;2022-08-25T14:44:08;6.82;;;3.00;;
21162;SDS011;10739;52.198;20.908;2022-08-25T14:46:36;15.00;;;2.50;;
21162;SDS011;10739;52.198;20.908;2022-08-25T14:49:12;8.70;;;3.20;;
21162;SDS011;10739;52.198;20.908;2022-08-25T14:51:43;12.20;;;3.25;;
21162;SDS011;10739;52.198;20.908;2022-08-25T14:54:11;11.40;;;2.80;;
21162;SDS011;10739;52.198;20.908;2022-08-25T14:56:40;13.73;;;3.15;;
21162;SDS011;10739;52.198;20.908;2022-08-25T14:59:07;8.77;;;3.00;;
21162;SDS011;10739;52.198;20.908;2022-08-25T15:01:34;12.25;;;2.90;;
21162;SDS011;10739;52.198;20.908;2022-08-25T15:04:02;9.18;;;2.60;;
21162;SDS011;10739;52.198;20.908;2022-08-25T15:06:42;11.15;;;2.75;;
21162;SDS011;10739;52.198;20.908;2022-08-25T15:09:09;6.25;;;2.95;;
21162;SDS011;10739;52.198;20.908;2022-08-25T15:11:42;9.73;;;2.97;;
21162;SDS011;10739;52.198;20.908;2022-08-25T15:14:16;6.30;;;2.50;;
21162;SDS011;10739;52.198;20.908;2022-08-25T15:16:48;6.60;;;3.30;;
21162;SDS011;10739;52.198;20.908;2022-08-25T15:19:19;15.90;;;4.18;;
21162;SDS011;10739;52.198;20.908;2022-08-25T15:21:49;17.17;;;3.33;;
21162;SDS011;10739;52.198;20.908;2022-08-25T15:24:16;11.18;;;3.08;;
21162;SDS011;10739;52.198;20.908;2022-08-25T15:29:18;11.35;;;2.97;;
21162;SDS011;10739;52.198;20.908;2022-08-25T15:31:45;5.90;;;3.75;;
21162;SDS011;10739;52.198;20.908;2022-08-25T15:34:12;13.38;;;3.30;;
21162;SDS011;10739;52.198;20.908;2022-08-25T15:36:38;13.93;;;2.88;;
21162;SDS011;10739;52.198;20.908;2022-08-25T15:39:05;8.68;;;2.67;;
21162;SDS011;10739;52.198;20.908;2022-08-25T15:41:32;8.25;;;2.60;;
21162;SDS011;10739;52.198;20.908;2022-08-25T15:44:00;9.93;;;2.70;;
21162;SDS011;10739;52.198;20.908;2022-08-25T15:46:27;7.10;;;2.85;;
21162;SDS011;10739;52.198;20.908;2022-08-25T15:48:55;10.88;;;2.80;;
21162;SDS011;10739;52.198;20.908;2022-08-25T15:51:24;12.05;;;2.72;;
21162;SDS011;10739;52.198;20.908;2022-08-25T15:53:52;6.90;;;2.58;;
21162;SDS011;10739;52.198;20.908;2022-08-25T15:56:19;4.35;;;2.40;;
21162;SDS011;10739;52.198;20.908;2022-08-25T15:58:47;9.35;;;2.78;;
21162;SDS011;10739;52.198;20.908;2022-08-25T16:01:15;9.00;;;2.97;;
21162;SDS011;10739;52.198;20.908;2022-08-25T16:03:46;10.77;;;2.38;;
21162;SDS011;10739;52.198;20.908;2022-08-25T16:06:12;14.27;;;2.70;;
21162;SDS011;10739;52.198;20.908;2022-08-25T16:08:39;9.30;;;2.58;;
21162;SDS011;10739;52.198;20.908;2022-08-25T16:11:05;14.27;;;3.33;;
21162;SDS011;10739;52.198;20.908;2022-08-25T16:13:50;11.90;;;2.80;;
21162;SDS011;10739;52.198;20.908;2022-08-25T16:16:18;13.75;;;2.58;;
21162;SDS011;10739;52.198;20.908;2022-08-25T16:18:47;12.77;;;2.65;;
21162;SDS011;10739;52.198;20.908;2022-08-25T16:21:15;5.53;;;2.72;;
21162;SDS011;10739;52.198;20.908;2022-08-25T16:23:48;9.13;;;2.35;;
21162;SDS011;10739;52.198;20.908;2022-08-25T16:26:17;11.65;;;2.70;;
21162;SDS011;10739;52.198;20.908;2022-08-25T16:28:43;14.55;;;3.25;;
21162;SDS011;10739;52.198;20.908;2022-08-25T16:31:10;4.55;;;2.50;;
21162;SDS011;10739;52.198;20.908;2022-08-25T16:33:39;9.50;;;2.70;;
21162;SDS011;10739;52.198;20.908;2022-08-25T16:36:06;12.40;;;3.25;;
21162;SDS011;10739;52.198;20.908;2022-08-25T16:38:39;8.73;;;2.42;;
21162;SDS011;10739;52.198;20.908;2022-08-25T16:41:08;13.82;;;3.08;;
21162;SDS011;10739;52.198;20.908;2022-08-25T16:43:38;7.07;;;2.90;;
21162;SDS011;10739;52.198;20.908;2022-08-25T16:46:07;11.02;;;2.75;;
21162;SDS011;10739;52.198;20.908;2022-08-25T16:48:36;9.98;;;2.65;;
21162;SDS011;10739;52.198;20.908;2022-08-25T16:51:08;9.23;;;2.72;;
21162;SDS011;10739;52.198;20.908;2022-08-25T16:53:38;6.57;;;2.33;;
21162;SDS011;10739;52.198;20.908;2022-08-25T16:56:24;11.32;;;2.90;;
21162;SDS011;10739;52.198;20.908;2022-08-25T16:58:52;13.57;;;2.97;;
21162;SDS011;10739;52.198;20.908;2022-08-25T17:01:21;13.88;;;2.65;;
21162;SDS011;10739;52.198;20.908;2022-08-25T17:03:50;9.60;;;2.92;;
21162;SDS011;10739;52.198;20.908;2022-08-25T17:06:18;10.18;;;2.85;;
21162;SDS011;10739;52.198;20.908;2022-08-25T17:08:46;10.40;;;2.80;;